createdAt,value
2018-09-28T00:00:24.625Z,10.78
2018-09-28T00:01:24.861Z,10.79
2018-09-28T00:02:25.196Z,10.81
2018-09-28T00:03:25.318Z,10.79
2018-09-28T00:04:25.368Z,10.74
2018-09-28T00:05:25.646Z,10.78
2018-09-28T00:06:25.623Z,10.71
2018-09-28T00:07:25.849Z,10.67
2018-09-28T00:08:26.041Z,10.60
2018-09-28T00:09:26.103Z,10.68
2018-09-28T00:10:25.920Z,10.63
2018-09-28T00:11:26.515Z,10.63
2018-09-28T00:12:26.350Z,10.61
2018-09-28T00:13:26.972Z,10.64
2018-09-28T00:14:26.630Z,10.53
2018-09-28T00:15:27.060Z,10.57
2018-09-28T00:16:27.285Z,10.59
2018-09-28T00:17:27.487Z,10.53
2018-09-28T00:18:27.687Z,10.54
2018-09-28T00:19:27.648Z,10.51
2018-09-28T00:20:28.000Z,10.54
2018-09-28T00:21:28.098Z,10.46
2018-09-28T00:22:28.292Z,10.48
2018-09-28T00:23:28.377Z,10.30
2018-09-28T00:24:28.580Z,10.34
2018-09-28T00:25:28.416Z,10.26
2018-09-28T00:26:28.591Z,10.17
2018-09-28T00:27:28.767Z,10.02
2018-09-28T00:28:28.944Z,10.15
2018-09-28T00:29:29.117Z,10.12
2018-09-28T00:30:29.289Z,10.02
2018-09-28T00:31:29.461Z,9.99
2018-09-28T00:32:29.640Z,10.04
2018-09-28T00:33:29.815Z,10.09
2018-09-28T00:34:29.980Z,10.07
2018-09-28T00:35:30.157Z,10.09
2018-09-28T00:36:30.322Z,10.13
2018-09-28T00:37:30.503Z,10.22
2018-09-28T00:38:30.672Z,10.20
2018-09-28T00:39:30.848Z,10.23
2018-09-28T00:40:31.015Z,10.15
2018-09-28T00:41:31.191Z,10.12
2018-09-28T00:42:31.372Z,10.13
2018-09-28T00:43:31.541Z,10.16
2018-09-28T00:44:31.717Z,10.02
2018-09-28T00:45:31.888Z,10.05
2018-09-28T00:46:32.063Z,10.12
2018-09-28T00:47:32.245Z,9.97
2018-09-28T00:48:32.413Z,9.97
2018-09-28T00:49:32.584Z,10.02
2018-09-28T00:50:32.759Z,9.99
2018-09-28T00:51:32.937Z,10.01
2018-09-28T00:52:33.110Z,10.05
2018-09-28T00:53:33.291Z,9.99
2018-09-28T00:54:33.462Z,9.99
2018-09-28T00:55:33.633Z,10.01
2018-09-28T00:56:33.808Z,10.12
2018-09-28T00:57:33.978Z,10.02
2018-09-28T00:58:34.154Z,10.12
2018-09-28T00:59:34.322Z,10.12
2018-09-28T01:00:34.492Z,10.15
2018-09-28T01:01:34.659Z,10.12
2018-09-28T01:02:34.838Z,10.12
2018-09-28T01:03:35.007Z,10.22
2018-09-28T01:04:35.180Z,10.15
2018-09-28T01:05:35.348Z,10.01
2018-09-28T01:06:35.521Z,9.99
2018-09-28T01:07:35.692Z,9.98
2018-09-28T01:08:35.865Z,10.10
2018-09-28T01:09:36.041Z,10.05
2018-09-28T01:10:36.216Z,10.12
2018-09-28T01:11:36.391Z,9.97
2018-09-28T01:12:36.562Z,9.91
2018-09-28T01:13:36.735Z,9.89
2018-09-28T01:14:36.910Z,9.91
2018-09-28T01:15:37.084Z,9.99
2018-09-28T01:16:37.263Z,9.91
2018-09-28T01:17:37.437Z,9.95
2018-09-28T01:18:37.603Z,9.97
2018-09-28T01:19:42.219Z,9.89
2018-09-28T01:20:43.526Z,9.98
2018-09-28T01:21:41.938Z,9.92
2018-09-28T01:22:41.482Z,9.99
2018-09-28T01:23:41.898Z,9.83
2018-09-28T01:24:38.654Z,9.92
2018-09-28T01:25:41.669Z,9.87
2018-09-28T01:26:38.909Z,9.82
2018-09-28T01:27:39.081Z,9.76
2018-09-28T01:28:39.252Z,9.83
2018-09-28T01:29:39.433Z,9.86
2018-09-28T01:30:39.606Z,9.82
2018-09-28T01:31:39.781Z,9.77
2018-09-28T01:32:39.956Z,9.76
2018-09-28T01:33:40.128Z,9.86
2018-09-28T01:34:40.305Z,9.80
2018-09-28T01:35:40.477Z,9.82
2018-09-28T01:36:40.658Z,9.80
2018-09-28T01:37:40.825Z,9.77
2018-09-28T01:38:40.994Z,9.73
2018-09-28T01:39:41.168Z,9.86
2018-09-28T01:40:41.340Z,9.91
2018-09-28T01:41:41.512Z,9.92
2018-09-28T01:42:41.679Z,9.89
2018-09-28T01:43:41.859Z,9.94
2018-09-28T01:44:42.035Z,9.77
2018-09-28T01:45:42.211Z,9.74
2018-09-28T01:46:42.461Z,9.74
2018-09-28T01:47:42.505Z,9.73
2018-09-28T01:48:42.676Z,9.74
2018-09-28T01:49:42.854Z,9.61
2018-09-28T01:50:43.034Z,9.65
2018-09-28T01:51:43.196Z,9.58
2018-09-28T01:52:43.377Z,9.56
2018-09-28T01:53:43.561Z,9.64
2018-09-28T01:54:43.748Z,9.59
2018-09-28T01:55:43.915Z,9.64
2018-09-28T01:56:44.082Z,9.54
2018-09-28T01:57:44.260Z,9.61
2018-09-28T01:58:44.442Z,9.46
2018-09-28T01:59:44.619Z,9.23
2018-09-28T02:00:44.800Z,9.44
2018-09-28T02:01:44.976Z,9.56
2018-09-28T02:02:45.147Z,9.56
2018-09-28T02:03:45.312Z,9.55
2018-09-28T02:04:45.487Z,9.58
2018-09-28T02:05:45.665Z,9.61
2018-09-28T02:06:45.832Z,9.65
2018-09-28T02:07:46.011Z,9.56
2018-09-28T02:08:46.188Z,9.54
2018-09-28T02:09:46.361Z,9.61
2018-09-28T02:10:46.527Z,9.50
2018-09-28T02:11:46.695Z,9.51
2018-09-28T02:12:46.865Z,9.39
2018-09-28T02:13:47.042Z,9.46
2018-09-28T02:14:47.211Z,9.51
2018-09-28T02:15:47.461Z,9.50
2018-09-28T02:16:47.556Z,9.54
2018-09-28T02:17:47.739Z,9.54
2018-09-28T02:18:47.922Z,9.51
2018-09-28T02:19:48.090Z,9.59
2018-09-28T02:20:48.274Z,9.56
2018-09-28T02:21:48.445Z,9.50
2018-09-28T02:22:48.625Z,9.55
2018-09-28T02:23:48.801Z,9.48
2018-09-28T02:24:48.971Z,9.47
2018-09-28T02:25:49.139Z,9.40
2018-09-28T02:26:49.304Z,9.36
2018-09-28T02:27:49.477Z,9.36
2018-09-28T02:28:49.650Z,9.31
2018-09-28T02:29:49.825Z,9.25
2018-09-28T02:30:49.994Z,9.19
2018-09-28T02:31:50.162Z,9.25
2018-09-28T02:32:50.331Z,9.18
2018-09-28T02:33:50.503Z,9.19
2018-09-28T02:34:50.689Z,9.14
2018-09-28T02:35:50.865Z,9.13
2018-09-28T02:36:51.047Z,9.00
2018-09-28T02:37:51.204Z,9.08
2018-09-28T02:38:51.380Z,8.95
2018-09-28T02:39:51.551Z,9.10
2018-09-28T02:40:51.725Z,9.10
2018-09-28T02:41:51.902Z,9.08
2018-09-28T02:42:52.107Z,9.13
2018-09-28T02:43:52.252Z,9.10
2018-09-28T02:44:52.424Z,9.03
2018-09-28T02:45:52.605Z,9.00
2018-09-28T02:46:52.770Z,8.87
2018-09-28T02:47:52.935Z,8.84
2018-09-28T02:48:53.107Z,9.06
2018-09-28T02:49:53.273Z,8.91
2018-09-28T02:50:53.445Z,8.76
2018-09-28T02:51:53.620Z,8.82
2018-09-28T02:52:53.797Z,8.85
2018-09-28T02:53:53.962Z,8.81
2018-09-28T02:54:54.133Z,8.74
2018-09-28T02:55:54.307Z,8.78
2018-09-28T02:56:54.533Z,8.79
2018-09-28T02:57:54.647Z,8.81
2018-09-28T02:58:54.816Z,8.71
2018-09-28T02:59:54.988Z,8.81
2018-09-28T03:00:55.161Z,8.70
2018-09-28T03:01:55.338Z,8.79
2018-09-28T03:02:55.511Z,8.71
2018-09-28T03:03:55.671Z,8.78
2018-09-28T03:04:55.848Z,8.81
2018-09-28T03:05:56.015Z,8.73
2018-09-28T03:06:56.194Z,8.74
2018-09-28T03:07:56.361Z,8.74
2018-09-28T03:08:56.540Z,8.61
2018-09-28T03:09:56.956Z,8.66
2018-09-28T03:10:56.952Z,8.61
2018-09-28T03:11:57.053Z,8.61
2018-09-28T03:12:57.219Z,8.56
2018-09-28T03:13:57.397Z,8.58
2018-09-28T03:14:57.661Z,8.66
2018-09-28T03:15:57.724Z,8.56
2018-09-28T03:16:58.393Z,8.53
2018-09-28T03:17:58.070Z,8.66
2018-09-28T03:18:58.243Z,8.67
2018-09-28T03:19:58.422Z,8.56
2018-09-28T03:20:58.601Z,8.48
2018-09-28T03:21:58.777Z,8.63
2018-09-28T03:22:58.954Z,8.60
2018-09-28T03:23:59.127Z,8.69
2018-09-28T03:24:59.308Z,8.49
2018-09-28T03:25:59.593Z,8.51
2018-09-28T03:26:59.672Z,8.52
2018-09-28T03:27:59.844Z,8.53
2018-09-28T03:29:00.020Z,8.55
2018-09-28T03:30:00.196Z,8.51
2018-09-28T03:31:00.380Z,8.53
2018-09-28T03:32:00.548Z,8.55
2018-09-28T03:33:00.717Z,8.46
2018-09-28T03:34:00.892Z,8.42
2018-09-28T03:35:01.062Z,8.37
2018-09-28T03:36:01.241Z,8.34
2018-09-28T03:37:01.415Z,8.48
2018-09-28T03:38:01.582Z,8.34
2018-09-28T03:39:01.753Z,8.51
2018-09-28T03:40:01.929Z,8.42
2018-09-28T03:41:02.100Z,8.44
2018-09-28T03:42:02.279Z,8.44
2018-09-28T03:43:02.458Z,8.46
2018-09-28T03:44:02.633Z,8.48
2018-09-28T03:45:02.814Z,8.45
2018-09-28T03:46:02.981Z,8.33
2018-09-28T03:47:03.163Z,8.30
2018-09-28T03:48:03.339Z,8.42
2018-09-28T03:49:03.507Z,8.34
2018-09-28T03:50:03.682Z,8.33
2018-09-28T03:51:04.062Z,8.38
2018-09-28T03:52:04.019Z,8.36
2018-09-28T03:53:04.196Z,8.31
2018-09-28T03:54:04.365Z,8.33
2018-09-28T03:55:04.538Z,8.20
2018-09-28T03:56:04.718Z,8.24
2018-09-28T03:57:04.885Z,8.33
2018-09-28T03:58:05.062Z,8.33
2018-09-28T03:59:05.233Z,8.33
2018-09-28T04:00:05.400Z,8.30
2018-09-28T04:01:05.579Z,8.34
2018-09-28T04:02:05.754Z,8.30
2018-09-28T04:03:06.021Z,8.36
2018-09-28T04:04:06.099Z,8.30
2018-09-28T04:05:06.275Z,8.41
2018-09-28T04:06:06.447Z,8.44
2018-09-28T04:07:06.623Z,8.33
2018-09-28T04:08:06.785Z,8.31
2018-09-28T04:09:06.961Z,8.30
2018-09-28T04:10:07.137Z,8.31
2018-09-28T04:11:07.309Z,8.30
2018-09-28T04:12:07.486Z,8.27
2018-09-28T04:13:07.660Z,8.18
2018-09-28T04:14:07.843Z,8.31
2018-09-28T04:15:08.019Z,8.30
2018-09-28T04:16:08.177Z,8.28
2018-09-28T04:17:08.347Z,8.31
2018-09-28T04:18:08.518Z,8.36
2018-09-28T04:19:08.695Z,8.19
2018-09-28T04:20:08.866Z,8.31
2018-09-28T04:21:09.046Z,8.36
2018-09-28T04:22:09.215Z,8.23
2018-09-28T04:23:09.390Z,8.16
2018-09-28T04:24:09.569Z,8.34
2018-09-28T04:25:09.741Z,8.28
2018-09-28T04:26:09.912Z,8.30
2018-09-28T04:27:10.093Z,8.28
2018-09-28T04:28:10.271Z,8.30
2018-09-28T04:29:10.444Z,8.42
2018-09-28T04:30:10.616Z,8.34
2018-09-28T04:31:10.795Z,8.31
2018-09-28T04:32:10.967Z,8.18
2018-09-28T04:33:11.147Z,8.24
2018-09-28T04:34:11.319Z,8.13
2018-09-28T04:35:11.492Z,8.18
2018-09-28T04:36:11.670Z,8.18
2018-09-28T04:37:12.082Z,8.13
2018-09-28T04:38:12.168Z,8.31
2018-09-28T04:39:12.138Z,8.24
2018-09-28T04:40:12.311Z,8.15
2018-09-28T04:41:12.487Z,8.24
2018-09-28T04:42:12.671Z,8.27
2018-09-28T04:43:12.839Z,8.12
2018-09-28T04:44:13.053Z,8.09
2018-09-28T04:45:13.234Z,8.12
2018-09-28T04:46:13.345Z,8.03
2018-09-28T04:47:13.522Z,7.91
2018-09-28T04:48:13.696Z,7.97
2018-09-28T04:49:13.867Z,7.95
2018-09-28T04:50:14.044Z,8.03
2018-09-28T04:51:14.209Z,8.00
2018-09-28T04:52:14.385Z,8.03
2018-09-28T04:53:14.593Z,7.98
2018-09-28T04:54:14.759Z,8.03
2018-09-28T04:55:14.999Z,8.05
2018-09-28T04:56:15.074Z,8.09
2018-09-28T04:57:15.240Z,8.03
2018-09-28T04:58:15.422Z,8.08
2018-09-28T04:59:15.593Z,7.98
2018-09-28T05:00:15.765Z,7.91
2018-09-28T05:01:15.950Z,7.93
2018-09-28T05:02:16.115Z,7.85
2018-09-28T05:03:16.286Z,7.93
2018-09-28T05:04:16.467Z,7.94
2018-09-28T05:05:16.654Z,7.93
2018-09-28T05:06:16.835Z,7.94
2018-09-28T05:07:17.016Z,7.93
2018-09-28T05:08:17.190Z,7.88
2018-09-28T05:09:17.403Z,7.88
2018-09-28T05:10:17.575Z,7.82
2018-09-28T05:11:17.741Z,7.75
2018-09-28T05:12:17.915Z,7.90
2018-09-28T05:13:18.084Z,7.97
2018-09-28T05:14:18.266Z,7.94
2018-09-28T05:15:18.436Z,7.97
2018-09-28T05:16:18.616Z,8.00
2018-09-28T05:17:18.780Z,7.90
2018-09-28T05:18:18.950Z,7.97
2018-09-28T05:19:19.187Z,7.98
2018-09-28T05:20:19.465Z,8.00
2018-09-28T05:21:19.518Z,7.98
2018-09-28T05:22:19.715Z,7.94
2018-09-28T05:23:19.887Z,7.90
2018-09-28T05:24:20.072Z,7.94
2018-09-28T05:25:20.290Z,7.88
2018-09-28T05:26:20.417Z,7.95
2018-09-28T05:27:20.862Z,7.95
2018-09-28T05:28:20.715Z,7.98
2018-09-28T05:29:20.890Z,7.93
2018-09-28T05:30:21.072Z,7.75
2018-09-28T05:31:21.348Z,7.90
2018-09-28T05:32:21.639Z,7.80
2018-09-28T05:33:21.615Z,7.80
2018-09-28T05:34:21.793Z,7.83
2018-09-28T05:35:22.020Z,7.85
2018-09-28T05:36:22.155Z,7.93
2018-09-28T05:37:22.367Z,7.88
2018-09-28T05:38:22.509Z,7.95
2018-09-28T05:39:22.744Z,7.90
2018-09-28T05:40:22.869Z,7.80
2018-09-28T05:41:23.040Z,7.87
2018-09-28T05:42:23.218Z,7.83
2018-09-28T05:43:23.399Z,7.88
2018-09-28T05:44:23.572Z,7.88
2018-09-28T05:45:23.753Z,7.85
2018-09-28T05:46:23.958Z,7.87
2018-09-28T05:47:24.105Z,7.87
2018-09-28T05:48:24.277Z,7.91
2018-09-28T05:49:24.465Z,7.76
2018-09-28T05:50:24.639Z,7.80
2018-09-28T05:51:24.840Z,7.91
2018-09-28T05:52:24.990Z,7.98
2018-09-28T05:53:25.169Z,8.00
2018-09-28T05:54:25.343Z,7.93
2018-09-28T05:55:25.533Z,7.76
2018-09-28T05:56:25.720Z,7.90
2018-09-28T05:57:25.901Z,7.98
2018-09-28T05:58:26.090Z,8.05
2018-09-28T05:59:26.259Z,8.05
2018-09-28T06:00:26.437Z,8.15
2018-09-28T06:01:26.606Z,8.15
2018-09-28T06:02:26.809Z,8.23
2018-09-28T06:03:26.984Z,8.19
2018-09-28T06:04:27.153Z,8.31
2018-09-28T06:05:27.349Z,8.30
2018-09-28T06:06:27.506Z,8.36
2018-09-28T06:07:27.683Z,8.48
2018-09-28T06:08:27.852Z,8.46
2018-09-28T06:09:28.027Z,8.44
2018-09-28T06:10:28.199Z,8.36
2018-09-28T06:11:28.371Z,8.48
2018-09-28T06:12:28.546Z,8.46
2018-09-28T06:13:28.720Z,8.48
2018-09-28T06:14:28.895Z,8.37
2018-09-28T06:15:29.068Z,8.34
2018-09-28T06:16:29.245Z,8.44
2018-09-28T06:17:29.414Z,8.44
2018-09-28T06:18:29.661Z,8.61
2018-09-28T06:19:29.782Z,8.71
2018-09-28T06:20:29.954Z,8.84
2018-09-28T06:21:30.162Z,8.82
2018-09-28T06:22:30.342Z,8.91
2018-09-28T06:23:30.509Z,9.02
2018-09-28T06:24:30.694Z,9.11
2018-09-28T06:25:30.872Z,9.08
2018-09-28T06:26:31.035Z,9.02
2018-09-28T06:27:31.209Z,9.00
2018-09-28T06:28:31.379Z,9.23
2018-09-28T06:29:31.554Z,9.14
2018-09-28T06:30:34.310Z,9.29
2018-09-28T06:31:31.910Z,9.22
2018-09-28T06:32:32.080Z,9.32
2018-09-28T06:33:32.263Z,9.62
2018-09-28T06:34:32.434Z,9.68
2018-09-28T06:35:32.715Z,10.23
2018-09-28T06:36:32.779Z,10.67
2018-09-28T06:37:32.968Z,10.97
2018-09-28T06:38:33.143Z,11.35
2018-09-28T06:39:33.316Z,11.77
2018-09-28T06:40:33.511Z,12.25
2018-09-28T06:41:33.694Z,12.15
2018-09-28T06:42:33.931Z,12.50
2018-09-28T06:43:34.035Z,12.97
2018-09-28T06:44:34.256Z,12.98
2018-09-28T06:45:34.385Z,13.04
2018-09-28T06:46:34.567Z,13.12
2018-09-28T06:47:34.742Z,13.03
2018-09-28T06:48:34.917Z,13.37
2018-09-28T06:49:36.340Z,13.65
2018-09-28T06:50:35.275Z,13.96
2018-09-28T06:51:35.447Z,14.45
2018-09-28T06:52:35.781Z,15.21
2018-09-28T06:53:36.761Z,15.82
2018-09-28T06:54:37.329Z,16.41
2018-09-28T06:55:36.304Z,16.87
2018-09-28T06:56:36.332Z,17.41
2018-09-28T06:57:36.363Z,17.59
2018-09-28T06:58:36.711Z,17.60
2018-09-28T06:59:36.755Z,17.39
2018-09-28T07:00:37.014Z,17.45
2018-09-28T07:01:37.115Z,17.42
2018-09-28T07:02:37.580Z,17.54
2018-09-28T07:03:37.886Z,17.78
2018-09-28T07:04:37.742Z,18.04
2018-09-28T07:05:37.883Z,18.15
2018-09-28T07:06:38.292Z,18.55
2018-09-28T07:07:39.600Z,18.75
2018-09-28T07:08:41.006Z,18.63
2018-09-28T07:09:38.898Z,18.38
2018-09-28T07:10:40.065Z,18.75
2018-09-28T07:11:39.680Z,19.14
2018-09-28T07:12:40.491Z,19.44
2018-09-28T07:13:40.729Z,19.49
2018-09-28T07:14:40.417Z,19.82
2018-09-28T07:15:40.936Z,20.06
2018-09-28T07:16:40.489Z,20.31
2018-09-28T07:17:39.819Z,20.48
2018-09-28T07:18:40.325Z,20.62
2018-09-28T07:19:41.184Z,20.77
2018-09-28T07:20:41.340Z,20.52
2018-09-28T07:21:41.910Z,20.36
2018-09-28T07:22:41.859Z,19.95
2018-09-28T07:23:41.104Z,19.36
2018-09-28T07:24:41.089Z,18.80
2018-09-28T07:25:41.010Z,18.55
2018-09-28T07:26:41.106Z,18.47
2018-09-28T07:27:41.347Z,18.55
2018-09-28T07:28:41.581Z,18.73
2018-09-28T07:29:41.817Z,18.99
2018-09-28T07:30:41.862Z,19.07
2018-09-28T07:31:42.049Z,19.30
2018-09-28T07:32:42.294Z,19.56
2018-09-28T07:33:42.354Z,19.47
2018-09-28T07:34:42.645Z,18.77
2018-09-28T07:35:42.786Z,18.81
2018-09-28T07:36:43.081Z,18.99
2018-09-28T07:37:43.136Z,19.21
2018-09-28T07:38:43.192Z,18.93
2018-09-28T07:39:43.393Z,18.66
2018-09-28T07:40:43.578Z,18.19
2018-09-28T07:41:43.771Z,17.72
2018-09-28T07:42:43.931Z,17.60
2018-09-28T07:43:44.106Z,17.67
2018-09-28T07:44:44.289Z,18.18
2018-09-28T07:45:44.649Z,18.20
2018-09-28T07:46:44.623Z,18.50
2018-09-28T07:47:44.878Z,18.75
2018-09-28T07:48:45.022Z,19.12
2018-09-28T07:49:45.206Z,19.33
2018-09-28T07:50:45.392Z,19.18
2018-09-28T07:51:45.576Z,19.34
2018-09-28T07:52:45.750Z,19.41
2018-09-28T07:53:45.932Z,19.77
2018-09-28T07:54:46.120Z,19.94
2018-09-28T07:55:46.334Z,19.86
2018-09-28T07:56:46.618Z,19.86
2018-09-28T07:57:46.617Z,20.24
2018-09-28T07:58:46.868Z,20.75
2018-09-28T07:59:47.384Z,20.72
2018-09-28T08:00:47.116Z,20.75
2018-09-28T08:01:47.482Z,20.87
2018-09-28T08:02:47.697Z,20.63
2018-09-28T08:03:47.963Z,20.18
2018-09-28T08:04:48.001Z,20.07
2018-09-28T08:05:48.409Z,19.81
2018-09-28T08:06:48.271Z,19.31
2018-09-28T08:07:48.915Z,19.22
2018-09-28T08:08:48.705Z,19.08
2018-09-28T08:09:48.947Z,19.16
2018-09-28T08:10:49.078Z,19.19
2018-09-28T08:11:49.887Z,19.09
2018-09-28T08:12:49.935Z,18.84
2018-09-28T08:13:49.776Z,18.53
2018-09-28T08:14:50.002Z,18.44
2018-09-28T08:15:49.765Z,18.41
2018-09-28T08:16:50.018Z,18.20
2018-09-28T08:17:50.153Z,18.03
2018-09-28T08:18:50.784Z,17.79
2018-09-28T08:19:50.586Z,17.78
2018-09-28T08:20:50.656Z,17.68
2018-09-28T08:21:50.867Z,17.51
2018-09-28T08:22:51.211Z,17.42
2018-09-28T08:23:51.617Z,17.44
2018-09-28T08:24:52.096Z,17.34
2018-09-28T08:25:52.045Z,17.27
2018-09-28T08:26:52.888Z,17.14
2018-09-28T08:27:52.057Z,17.01
2018-09-28T08:28:52.696Z,16.89
2018-09-28T08:29:53.007Z,16.72
2018-09-28T08:30:53.148Z,16.64
2018-09-28T08:31:53.203Z,16.64
2018-09-28T08:32:53.474Z,16.64
2018-09-28T08:33:53.570Z,16.51
2018-09-28T08:34:53.315Z,16.66
2018-09-28T08:35:53.442Z,16.61
2018-09-28T08:36:53.903Z,16.49
2018-09-28T08:37:55.144Z,16.29
2018-09-28T08:38:53.901Z,16.24
2018-09-28T08:39:54.484Z,16.15
2018-09-28T08:40:53.911Z,15.97
2018-09-28T08:41:54.323Z,15.88
2018-09-28T08:42:54.760Z,15.95
2018-09-28T08:43:54.497Z,15.88
2018-09-28T08:44:54.919Z,15.86
2018-09-28T08:45:54.888Z,15.91
2018-09-28T08:46:55.548Z,16.04
2018-09-28T08:47:55.237Z,16.04
2018-09-28T08:48:55.571Z,16.10
2018-09-28T08:49:55.794Z,16.00
2018-09-28T08:50:56.039Z,15.97
2018-09-28T08:51:55.912Z,15.97
2018-09-28T08:52:56.339Z,15.90
2018-09-28T08:53:56.483Z,15.92
2018-09-28T08:54:57.501Z,15.84
2018-09-28T08:55:56.841Z,15.77
2018-09-28T08:56:57.165Z,15.84
2018-09-28T08:57:57.102Z,15.79
2018-09-28T08:58:57.097Z,15.76
2018-09-28T08:59:57.547Z,15.70
2018-09-28T09:00:57.760Z,15.72
2018-09-28T09:01:58.182Z,15.68
2018-09-28T09:02:57.889Z,15.73
2018-09-28T09:03:58.342Z,15.62
2018-09-28T09:04:58.644Z,15.70
2018-09-28T09:05:58.437Z,15.61
2018-09-28T09:06:58.635Z,15.58
2018-09-28T09:07:58.806Z,15.55
2018-09-28T09:08:58.973Z,15.55
2018-09-28T09:09:59.228Z,15.58
2018-09-28T09:10:59.409Z,15.49
2018-09-28T09:11:59.551Z,15.46
2018-09-28T09:12:59.759Z,15.46
2018-09-28T09:14:00.177Z,15.44
2018-09-28T09:14:59.922Z,15.42
2018-09-28T09:16:00.134Z,15.43
2018-09-28T09:17:01.567Z,15.42
2018-09-28T09:18:00.884Z,15.42
2018-09-28T09:19:00.728Z,15.37
2018-09-28T09:20:01.286Z,15.29
2018-09-28T09:21:00.919Z,15.36
2018-09-28T09:22:01.077Z,15.43
2018-09-28T09:23:01.248Z,15.37
2018-09-28T09:24:01.449Z,15.40
2018-09-28T09:25:01.596Z,15.35
2018-09-28T09:26:01.771Z,15.35
2018-09-28T09:27:01.957Z,15.37
2018-09-28T09:28:02.476Z,15.43
2018-09-28T09:29:02.280Z,15.29
2018-09-28T09:30:02.510Z,15.43
2018-09-28T09:31:02.659Z,15.42
2018-09-28T09:32:02.838Z,15.43
2018-09-28T09:33:03.033Z,15.47
2018-09-28T09:34:03.198Z,15.42
2018-09-28T09:35:03.374Z,15.46
2018-09-28T09:36:03.581Z,15.49
2018-09-28T09:37:03.751Z,15.52
2018-09-28T09:38:03.931Z,15.57
2018-09-28T09:39:06.076Z,15.47
2018-09-28T09:40:05.629Z,15.58
2018-09-28T09:41:06.157Z,15.62
2018-09-28T09:42:05.906Z,15.54
2018-09-28T09:43:05.380Z,15.52
2018-09-28T09:44:05.884Z,15.51
2018-09-28T09:45:06.252Z,15.52
2018-09-28T09:46:06.672Z,15.52
2018-09-28T09:47:06.594Z,15.51
2018-09-28T09:48:06.500Z,15.65
2018-09-28T09:49:06.762Z,15.61
2018-09-28T09:50:06.930Z,15.64
2018-09-28T09:51:06.816Z,15.68
2018-09-28T09:52:08.034Z,15.77
2018-09-28T09:53:08.126Z,15.70
2018-09-28T09:54:07.065Z,15.67
2018-09-28T09:55:06.842Z,15.67
2018-09-28T09:56:07.933Z,15.79
2018-09-28T09:57:08.658Z,15.83
2018-09-28T09:58:08.436Z,15.86
2018-09-28T09:59:08.576Z,15.86
2018-09-28T10:00:08.145Z,15.83
2018-09-28T10:01:08.546Z,15.86
2018-09-28T10:02:09.219Z,15.82
2018-09-28T10:03:09.497Z,15.88
2018-09-28T10:04:09.034Z,15.79
2018-09-28T10:05:08.941Z,15.86
2018-09-28T10:06:09.576Z,15.90
2018-09-28T10:07:10.677Z,15.84
2018-09-28T10:08:09.652Z,15.86
2018-09-28T10:09:09.561Z,15.90
2018-09-28T10:10:10.502Z,15.94
2018-09-28T10:11:09.968Z,15.86
2018-09-28T10:12:10.112Z,15.90
2018-09-28T10:13:10.525Z,16.01
2018-09-28T10:14:11.413Z,16.00
2018-09-28T10:15:11.124Z,16.02
2018-09-28T10:16:11.273Z,16.02
2018-09-28T10:17:12.614Z,16.09
2018-09-28T10:18:11.349Z,16.05
2018-09-28T10:19:11.673Z,16.05
2018-09-28T10:20:11.432Z,16.12
2018-09-28T10:21:11.506Z,16.04
2018-09-28T10:22:12.559Z,16.10
2018-09-28T10:23:12.167Z,16.02
2018-09-28T10:24:13.571Z,16.08
2018-09-28T10:25:13.203Z,16.08
2018-09-28T10:26:14.112Z,16.10
2018-09-28T10:27:14.041Z,16.09
2018-09-28T10:28:12.946Z,16.04
2018-09-28T10:29:14.061Z,15.97
2018-09-28T10:30:14.428Z,15.95
2018-09-28T10:31:13.776Z,15.95
2018-09-28T10:32:14.380Z,15.91
2018-09-28T10:33:14.604Z,15.98
2018-09-28T10:34:13.224Z,15.97
2018-09-28T10:35:13.392Z,15.97
2018-09-28T10:36:13.568Z,15.94
2018-09-28T10:37:13.778Z,15.90
2018-09-28T10:38:13.962Z,15.77
2018-09-28T10:39:14.141Z,15.84
2018-09-28T10:40:14.385Z,15.79
2018-09-28T10:41:14.525Z,15.77
2018-09-28T10:42:14.673Z,15.83
2018-09-28T10:43:14.842Z,15.79
2018-09-28T10:44:15.024Z,15.70
2018-09-28T10:45:15.217Z,15.68
2018-09-28T10:46:15.393Z,15.72
2018-09-28T10:47:15.571Z,15.77
2018-09-28T10:48:15.764Z,15.77
2018-09-28T10:49:15.981Z,15.82
2018-09-28T10:50:16.155Z,15.83
2018-09-28T10:51:16.364Z,15.79
2018-09-28T10:52:16.743Z,15.73
2018-09-28T10:53:16.704Z,15.79
2018-09-28T10:54:16.886Z,15.80
2018-09-28T10:55:17.064Z,15.83
2018-09-28T10:56:17.251Z,15.84
2018-09-28T10:57:17.516Z,15.84
2018-09-28T10:58:17.567Z,15.79
2018-09-28T10:59:17.810Z,15.88
2018-09-28T11:00:17.891Z,15.88
2018-09-28T11:01:18.066Z,15.88
2018-09-28T11:02:18.256Z,15.94
2018-09-28T11:03:18.469Z,15.94
2018-09-28T11:04:18.699Z,15.91
2018-09-28T11:05:18.840Z,15.86
2018-09-28T11:06:19.014Z,15.86
2018-09-28T11:07:19.190Z,15.88
2018-09-28T11:08:19.452Z,15.91
2018-09-28T11:09:19.633Z,15.88
2018-09-28T11:10:19.760Z,15.83
2018-09-28T11:11:19.946Z,15.77
2018-09-28T11:12:20.559Z,15.83
2018-09-28T11:13:20.240Z,15.83
2018-09-28T11:14:20.409Z,15.79
2018-09-28T11:15:20.734Z,15.83
2018-09-28T11:16:20.826Z,15.84
2018-09-28T11:17:21.291Z,15.83
2018-09-28T11:18:21.110Z,15.84
2018-09-28T11:19:21.800Z,15.84
2018-09-28T11:20:21.699Z,15.82
2018-09-28T11:21:21.546Z,15.84
2018-09-28T11:22:22.007Z,15.91
2018-09-28T11:23:22.026Z,15.92
2018-09-28T11:24:22.322Z,15.92
2018-09-28T11:25:22.251Z,16.00
2018-09-28T11:26:23.692Z,16.12
2018-09-28T11:27:23.007Z,15.97
2018-09-28T11:28:23.257Z,16.04
2018-09-28T11:29:22.827Z,16.04
2018-09-28T11:30:22.997Z,16.15
2018-09-28T11:31:23.170Z,16.13
2018-09-28T11:32:23.452Z,16.23
2018-09-28T11:33:23.653Z,16.29
2018-09-28T11:34:23.747Z,16.35
2018-09-28T11:35:23.828Z,16.36
2018-09-28T11:36:24.169Z,16.46
2018-09-28T11:37:24.118Z,16.65
2018-09-28T11:38:24.582Z,16.60
2018-09-28T11:39:24.559Z,16.69
2018-09-28T11:40:24.724Z,16.69
2018-09-28T11:41:25.080Z,16.76
2018-09-28T11:42:25.012Z,16.83
2018-09-28T11:43:25.225Z,16.96
2018-09-28T11:44:25.459Z,16.99
2018-09-28T11:45:25.645Z,17.09
2018-09-28T11:46:25.712Z,17.16
2018-09-28T11:47:25.790Z,17.31
2018-09-28T11:48:26.561Z,17.51
2018-09-28T11:49:26.199Z,17.54
2018-09-28T11:50:26.425Z,17.60
2018-09-28T11:51:26.736Z,17.71
2018-09-28T11:52:26.978Z,17.86
2018-09-28T11:53:27.023Z,17.83
2018-09-28T11:54:28.292Z,18.04
2018-09-28T11:55:27.328Z,18.13
2018-09-28T11:56:27.693Z,18.18
2018-09-28T11:57:28.259Z,18.22
2018-09-28T11:58:29.888Z,18.33
2018-09-28T11:59:29.167Z,18.29
2018-09-28T12:00:29.547Z,18.23
2018-09-28T12:01:31.395Z,18.23
2018-09-28T12:02:29.757Z,18.26
2018-09-28T12:03:30.533Z,18.25
2018-09-28T12:04:29.868Z,18.16
2018-09-28T12:05:30.057Z,18.15
2018-09-28T12:06:31.546Z,17.89
2018-09-28T12:07:34.928Z,17.82
2018-09-28T12:08:30.461Z,17.87
2018-09-28T12:09:30.563Z,17.76
2018-09-28T12:10:30.661Z,17.78
2018-09-28T12:11:31.224Z,17.72
2018-09-28T12:12:30.443Z,17.70
2018-09-28T12:13:30.584Z,17.71
2018-09-28T12:14:30.540Z,17.79
2018-09-28T12:15:31.049Z,17.74
2018-09-28T12:16:30.871Z,17.74
2018-09-28T12:17:33.311Z,17.68
2018-09-28T12:18:31.618Z,17.67
2018-09-28T12:19:31.347Z,17.68
2018-09-28T12:20:31.524Z,17.59
2018-09-28T12:21:32.879Z,17.60
2018-09-28T12:22:31.942Z,17.51
2018-09-28T12:23:32.280Z,17.48
2018-09-28T12:24:33.059Z,17.41
2018-09-28T12:25:32.502Z,17.31
2018-09-28T12:26:33.297Z,17.41
2018-09-28T12:27:33.385Z,17.39
2018-09-28T12:28:33.144Z,17.33
2018-09-28T12:29:33.055Z,17.38
2018-09-28T12:30:33.412Z,17.39
2018-09-28T12:31:33.460Z,17.31
2018-09-28T12:32:33.870Z,17.26
2018-09-28T12:33:33.931Z,17.33
2018-09-28T12:34:33.917Z,17.24
2018-09-28T12:35:34.007Z,17.29
2018-09-28T12:36:34.198Z,17.27
2018-09-28T12:37:35.096Z,17.12
2018-09-28T12:38:34.523Z,17.06
2018-09-28T12:39:34.810Z,17.15
2018-09-28T12:40:34.895Z,17.11
2018-09-28T12:41:35.356Z,17.19
2018-09-28T12:42:35.943Z,17.24
2018-09-28T12:43:35.520Z,17.34
2018-09-28T12:44:35.655Z,17.39
2018-09-28T12:45:35.822Z,17.31
2018-09-28T12:46:35.970Z,17.45
2018-09-28T12:47:36.304Z,17.49
2018-09-28T12:48:36.293Z,17.63
2018-09-28T12:49:36.429Z,17.54
2018-09-28T12:50:36.712Z,17.59
2018-09-28T12:51:36.769Z,17.60
2018-09-28T12:52:36.989Z,17.65
2018-09-28T12:53:37.324Z,17.68
2018-09-28T12:54:37.500Z,17.80
2018-09-28T12:55:37.497Z,17.87
2018-09-28T12:56:37.747Z,18.00
2018-09-28T12:57:37.886Z,18.13
2018-09-28T12:58:38.064Z,18.10
2018-09-28T12:59:38.247Z,18.16
2018-09-28T13:00:38.514Z,18.25
2018-09-28T13:01:38.622Z,18.35
2018-09-28T13:02:38.988Z,18.38
2018-09-28T13:03:39.004Z,18.33
2018-09-28T13:04:39.286Z,18.41
2018-09-28T13:05:39.348Z,18.47